首页
METAR-TAF:

METAR-TAF

机场 :

直布罗陀, 直布罗陀

直布羅陀機場

纬度: 36-09N, 经度: 005-21W, 海拔: 5米

当前天气观测

该预报发布于1小时和3分钟前的05:50 UTC
风速6节,风向西转西南
温度 16°C
湿度 94%
气压 1014 hPa
能见度10公里或以上
1500米以下无云,无积雨云

METAR: LXGB 250550Z 24006KT CAVOK 16/15 Q1014

时间: 08:53 (06:53 UTC)

预报

该预报发布于2小时和17分钟前的04:36 UTC
预报有效从25日的 06点(UTC)到 25日的 15点(UTC)
风速5节,风向东转东北
能见度10公里或以上
少量云层高于1200英尺
散云层高于4500英尺
成为
从 25日的 06点(UTC)到 25日的 09点(UTC)
风速12节,风向西南
短暂存在
从 25日的 09点(UTC)到 25日的 15点(UTC)
能見度: 6000
散云层高于2400英尺, 积雨云.
阵雨
几率 30% :
短暂存在
从 25日的 14点(UTC)到 25日的 15点(UTC)
能見度: 3500
雷暴, 雨

TAF: LXGB 250436Z 2506/2515 06005KT 9999 FEW012 SCT045 BECMG 2506/2509 23012KT TEMPO 2509/2515 6000 SHRA SCT024CB PROB30 TEMPO 2514/2515 3500 TSRA

超过4000个机场的气象观测和天气预报(METAR&TAF报告)。

可查询的气象台以黄色和红色小点在地图上表示。

将鼠标移到小点上方,可查看气象台名称。

然后点击查看天气观测和预报。

如需切换地图:点击带黑十字的绿色按钮放大地图;点击带横线的绿色按钮缩小地图;或者点击绿色箭头查看邻近地区的地图。


METAR-TAF: